Time;durP1;ratioP1;P1;durP2;ratioP2;P2;SDS_P1;SDS_P2;PMS_P1;PMS_P2;Temp;Humidity;BMP_temperature;BMP_pressure;BME280_temperature;BME280_humidity;BME280_pressure;Samples;Min_cycle;Max_cycle;Signal;HPM_P1;HPM_P2
2023/01/01 00:00:24;;;;;;;13.82;6.57;;;;;;;;;;8297156;28;20072;-90
2023/01/01 00:04:48;;;;;;;13.35;6.82;;;;;;;;;;8301055;28;20056;-89
2023/01/01 00:10:26;;;;;;;10.70;6.20;;;;;;;;;;8300845;28;20149;-87
2023/01/01 00:13:16;;;;;;;12.00;6.15;;;;;;;;;;8301016;28;20136;-88
2023/01/01 00:17:19;;;;;;;10.93;6.05;;;;;;;;;;8301083;28;20042;-89
2023/01/01 00:21:21;;;;;;;12.35;6.22;;;;;;;;;;8274315;28;20132;-89
2023/01/01 00:25:25;;;;;;;13.18;6.18;;;;;;;;;;8300653;28;20520;-88
2023/01/01 00:29:29;;;;;;;11.25;6.65;;;;;;;;;;8300578;28;20053;-89
2023/01/01 00:33:32;;;;;;;11.15;6.13;;;;;;;;;;8294645;28;20409;-91
2023/01/01 00:37:34;;;;;;;12.93;6.00;;;;;;;;;;8283986;28;20073;-89
2023/01/01 00:41:37;;;;;;;10.10;5.35;;;;;;;;;;8299092;28;20545;-89
2023/01/01 00:45:46;;;;;;;9.98;5.78;;;;;;;;;;8289708;28;20189;-88
2023/01/01 00:49:49;;;;;;;11.60;5.53;;;;;;;;;;8299822;28;20450;-88
2023/01/01 00:53:52;;;;;;;11.85;5.45;;;;;;;;;;8299751;28;20053;-89
2023/01/01 00:57:55;;;;;;;9.40;5.22;;;;;;;;;;8283370;28;20061;-90
2023/01/01 01:01:59;;;;;;;9.55;5.07;;;;;;;;;;8280108;28;20046;-89
2023/01/01 01:06:09;;;;;;;9.18;4.68;;;;;;;;;;8279584;28;20050;-88
2023/01/01 01:10:12;;;;;;;9.20;4.70;;;;;;;;;;8267183;28;20478;-88
2023/01/01 01:14:15;;;;;;;7.32;4.75;;;;;;;;;;8297467;28;20046;-89
2023/01/01 01:18:19;;;;;;;9.32;4.97;;;;;;;;;;8299056;28;20049;-89
2023/01/01 01:22:22;;;;;;;10.07;5.07;;;;;;;;;;8298712;28;20042;-89
2023/01/01 01:26:26;;;;;;;9.90;4.85;;;;;;;;;;8298657;28;20045;-89
2023/01/01 01:30:29;;;;;;;10.43;4.80;;;;;;;;;;8298292;28;20138;-89
2023/01/01 01:34:33;;;;;;;8.93;4.47;;;;;;;;;;8298458;28;20056;-89
2023/01/01 01:38:36;;;;;;;11.10;4.82;;;;;;;;;;8298470;28;20405;-89
2023/01/01 01:42:39;;;;;;;10.25;4.88;;;;;;;;;;8298063;28;20037;-89
2023/01/01 01:46:45;;;;;;;9.93;5.18;;;;;;;;;;8297794;28;20068;-90
2023/01/01 01:50:51;;;;;;;9.50;4.90;;;;;;;;;;8294831;28;20039;-90
2023/01/01 01:54:54;;;;;;;8.48;5.13;;;;;;;;;;8288884;28;20066;-89
2023/01/01 01:58:57;;;;;;;15.13;6.00;;;;;;;;;;8297576;28;20066;-89
2023/01/01 02:03:05;;;;;;;8.05;5.15;;;;;;;;;;8297608;28;20161;-88
2023/01/01 02:07:09;;;;;;;10.73;5.47;;;;;;;;;;8297413;28;20048;-88
2023/01/01 02:11:12;;;;;;;10.45;5.75;;;;;;;;;;8297639;28;20049;-89
2023/01/01 02:15:15;;;;;;;9.20;5.25;;;;;;;;;;8296717;28;20065;-88
2023/01/01 02:19:29;;;;;;;9.68;5.13;;;;;;;;;;8297227;28;20468;-89
2023/01/01 02:23:49;;;;;;;11.63;4.93;;;;;;;;;;8297153;28;20418;-88
2023/01/01 02:28:01;;;;;;;10.10;5.40;;;;;;;;;;8297024;28;20096;-87
2023/01/01 02:32:09;;;;;;;10.98;5.50;;;;;;;;;;8297099;28;20861;-88
2023/01/01 02:36:14;;;;;;;10.43;5.68;;;;;;;;;;8296845;28;20108;-89
2023/01/01 02:40:18;;;;;;;12.00;6.28;;;;;;;;;;8296823;28;20046;-88
2023/01/01 02:44:25;;;;;;;10.10;5.75;;;;;;;;;;8296291;28;20060;-88
2023/01/01 02:48:40;;;;;;;10.68;6.25;;;;;;;;;;8297114;28;20463;-91
2023/01/01 02:53:01;;;;;;;12.45;6.13;;;;;;;;;;8296398;28;20085;-89
2023/01/01 02:57:09;;;;;;;13.65;6.43;;;;;;;;;;8292683;28;20128;-88
2023/01/01 03:01:21;;;;;;;11.38;5.90;;;;;;;;;;8293871;28;20046;-88
2023/01/01 03:05:31;;;;;;;12.52;6.55;;;;;;;;;;8296062;28;20060;-89
2023/01/01 03:09:43;;;;;;;10.98;5.68;;;;;;;;;;8296447;28;20038;-88
2023/01/01 03:13:52;;;;;;;11.97;6.70;;;;;;;;;;8294391;28;20534;-88
2023/01/01 03:18:02;;;;;;;11.57;5.50;;;;;;;;;;8295932;28;20453;-88
2023/01/01 03:22:09;;;;;;;10.88;5.40;;;;;;;;;;8282973;28;20046;-88
2023/01/01 03:26:15;;;;;;;11.80;5.90;;;;;;;;;;8295952;28;20046;-88
2023/01/01 03:30:20;;;;;;;9.77;5.95;;;;;;;;;;8302680;28;20125;-88
2023/01/01 03:34:29;;;;;;;10.50;5.35;;;;;;;;;;8302145;28;20124;-88
2023/01/01 03:38:38;;;;;;;10.55;5.97;;;;;;;;;;8302192;28;20046;-88
2023/01/01 03:42:44;;;;;;;12.10;6.20;;;;;;;;;;8288716;28;20128;-89
2023/01/01 03:46:47;;;;;;;11.23;5.40;;;;;;;;;;8301754;28;20058;-89
2023/01/01 03:50:59;;;;;;;10.55;5.10;;;;;;;;;;8301588;28;20391;-88
2023/01/01 03:55:07;;;;;;;9.98;4.95;;;;;;;;;;8301657;28;20458;-88
2023/01/01 03:59:16;;;;;;;9.40;4.75;;;;;;;;;;8301672;28;20064;-88
2023/01/01 04:03:23;;;;;;;10.40;5.78;;;;;;;;;;8300974;28;20478;-88
2023/01/01 04:07:26;;;;;;;9.30;5.00;;;;;;;;;;8301309;28;20510;-89
2023/01/01 04:15:58;;;;;;;10.60;5.40;;;;;;;;;;8285745;28;20054;-88
2023/01/01 04:20:01;;;;;;;8.93;5.05;;;;;;;;;;8300665;28;20069;-88
2023/01/01 04:24:03;;;;;;;10.95;5.20;;;;;;;;;;8300683;28;20394;-89
2023/01/01 04:28:08;;;;;;;10.52;5.18;;;;;;;;;;8300500;28;20049;-88
2023/01/01 04:32:10;;;;;;;9.65;5.20;;;;;;;;;;8300349;28;20410;-88
2023/01/01 04:36:13;;;;;;;10.35;4.80;;;;;;;;;;8300385;28;20512;-88
2023/01/01 04:40:16;;;;;;;9.73;4.90;;;;;;;;;;8299699;28;20046;-88
2023/01/01 04:44:21;;;;;;;10.00;5.20;;;;;;;;;;8299723;28;20092;-88
2023/01/01 04:48:23;;;;;;;8.98;4.85;;;;;;;;;;8300014;28;20410;-88
2023/01/01 04:52:26;;;;;;;13.88;8.30;;;;;;;;;;8299833;28;20133;-88
2023/01/01 04:56:29;;;;;;;9.38;5.32;;;;;;;;;;8299835;28;20038;-88
2023/01/01 05:00:33;;;;;;;9.15;5.20;;;;;;;;;;8299559;28;20128;-88
2023/01/01 05:04:36;;;;;;;8.73;4.93;;;;;;;;;;8299292;28;20042;-89
2023/01/01 05:08:41;;;;;;;7.43;4.95;;;;;;;;;;8299132;28;20056;-89
2023/01/01 05:12:43;;;;;;;7.88;4.53;;;;;;;;;;8286267;28;20046;-88
2023/01/01 05:16:48;;;;;;;8.60;5.10;;;;;;;;;;8296212;28;20052;-89
2023/01/01 05:20:50;;;;;;;9.07;4.88;;;;;;;;;;8289623;28;20129;-88
2023/01/01 05:24:53;;;;;;;8.85;4.95;;;;;;;;;;8298785;28;20120;-88
2023/01/01 05:28:57;;;;;;;9.63;5.22;;;;;;;;;;8298610;28;20054;-88
2023/01/01 05:33:02;;;;;;;10.57;4.90;;;;;;;;;;8298524;28;20107;-88
2023/01/01 05:37:05;;;;;;;9.23;4.88;;;;;;;;;;8298501;28;20161;-88
2023/01/01 05:41:08;;;;;;;8.00;4.15;;;;;;;;;;8298351;28;20489;-88
2023/01/01 05:45:11;;;;;;;9.93;4.70;;;;;;;;;;8298057;28;20094;-89
2023/01/01 05:49:16;;;;;;;8.20;4.22;;;;;;;;;;8298067;28;20121;-88
2023/01/01 05:53:18;;;;;;;8.55;4.50;;;;;;;;;;8297090;28;20074;-89
2023/01/01 05:57:21;;;;;;;8.20;4.25;;;;;;;;;;8289696;28;20066;-88
2023/01/01 06:01:25;;;;;;;7.00;4.22;;;;;;;;;;8297806;28;20053;-88
2023/01/01 06:05:29;;;;;;;9.32;5.53;;;;;;;;;;8291765;28;20053;-88
2023/01/01 06:09:32;;;;;;;8.77;4.55;;;;;;;;;;8288391;28;20137;-88
2023/01/01 06:13:35;;;;;;;6.93;4.40;;;;;;;;;;8291010;28;20128;-89
2023/01/01 06:17:38;;;;;;;9.13;4.95;;;;;;;;;;8267700;28;20497;-87
2023/01/01 06:21:42;;;;;;;8.73;4.45;;;;;;;;;;8280530;28;20061;-88
2023/01/01 06:25:45;;;;;;;6.90;3.97;;;;;;;;;;8284455;28;20056;-88
2023/01/01 06:29:47;;;;;;;8.65;4.63;;;;;;;;;;8296824;28;20111;-87
2023/01/01 06:33:50;;;;;;;8.63;4.35;;;;;;;;;;8296894;28;20125;-89
2023/01/01 06:37:55;;;;;;;7.50;3.50;;;;;;;;;;8296514;28;20398;-90
2023/01/01 06:41:58;;;;;;;8.02;4.40;;;;;;;;;;8290257;28;20050;-88
2023/01/01 06:46:01;;;;;;;8.32;3.80;;;;;;;;;;8284735;28;20057;-87
2023/01/01 06:50:05;;;;;;;7.03;4.30;;;;;;;;;;8287364;28;20105;-88
2023/01/01 06:54:11;;;;;;;7.28;4.32;;;;;;;;;;8296262;28;20077;-89
2023/01/01 06:58:14;;;;;;;8.57;4.45;;;;;;;;;;8273550;28;20042;-87
2023/01/01 07:02:17;;;;;;;8.23;4.70;;;;;;;;;;8279106;28;20497;-87
2023/01/01 07:06:20;;;;;;;7.90;4.05;;;;;;;;;;8293956;28;20133;-87
2023/01/01 07:10:24;;;;;;;7.85;4.20;;;;;;;;;;8277065;28;20072;-87
2023/01/01 07:14:27;;;;;;;11.10;4.50;;;;;;;;;;8289674;28;20046;-87
2023/01/01 07:18:30;;;;;;;7.93;4.30;;;;;;;;;;8272871;28;20042;-87
2023/01/01 07:22:33;;;;;;;7.57;4.40;;;;;;;;;;8293345;28;20053;-87
2023/01/01 07:26:37;;;;;;;9.00;4.10;;;;;;;;;;8302291;28;20479;-87
2023/01/01 07:30:39;;;;;;;7.63;4.10;;;;;;;;;;8302407;28;20038;-87
2023/01/01 07:34:42;;;;;;;9.27;4.40;;;;;;;;;;8298336;28;20050;-89
2023/01/01 07:38:45;;;;;;;7.00;4.05;;;;;;;;;;8286791;28;20053;-90
2023/01/01 07:42:50;;;;;;;9.27;4.53;;;;;;;;;;8294887;28;20481;-86
2023/01/01 07:47:02;;;;;;;6.32;3.80;;;;;;;;;;8285186;28;20512;-86
2023/01/01 07:51:05;;;;;;;7.25;3.83;;;;;;;;;;8285491;28;20100;-90
2023/01/01 07:55:13;;;;;;;8.05;3.60;;;;;;;;;;8287673;28;20125;-91
2023/01/01 07:59:17;;;;;;;8.93;3.90;;;;;;;;;;8292143;28;20133;-89
2023/01/01 08:03:20;;;;;;;7.28;3.80;;;;;;;;;;8295282;28;20046;-88
2023/01/01 08:07:22;;;;;;;7.57;3.80;;;;;;;;;;8289689;28;20073;-92
2023/01/01 08:11:25;;;;;;;7.80;3.95;;;;;;;;;;8274894;28;20050;-92
2023/01/01 08:15:30;;;;;;;8.00;4.47;;;;;;;;;;8264422;28;20050;-90
2023/01/01 08:19:33;;;;;;;6.80;4.28;;;;;;;;;;8267335;28;20072;-88
2023/01/01 08:23:35;;;;;;;7.63;4.43;;;;;;;;;;8264732;28;20050;-88
2023/01/01 08:27:38;;;;;;;9.38;4.70;;;;;;;;;;8277244;28;20442;-91
2023/01/01 08:31:43;;;;;;;7.82;4.70;;;;;;;;;;8276351;28;20050;-92
2023/01/01 08:35:46;;;;;;;7.40;4.60;;;;;;;;;;8266153;28;20046;-91
2023/01/01 08:39:50;;;;;;;7.53;4.30;;;;;;;;;;8271175;28;20130;-92
2023/01/01 08:43:53;;;;;;;8.75;4.60;;;;;;;;;;8270339;28;20140;-90
2023/01/01 08:47:58;;;;;;;6.53;4.00;;;;;;;;;;8265911;28;20618;-91
2023/01/01 08:52:00;;;;;;;8.07;4.30;;;;;;;;;;8270003;28;20050;-92
2023/01/01 08:56:07;;;;;;;8.80;3.92;;;;;;;;;;8265633;28;20136;-90
2023/01/01 09:00:12;;;;;;;8.70;4.82;;;;;;;;;;8282194;28;20152;-91
2023/01/01 09:04:16;;;;;;;8.82;4.25;;;;;;;;;;8265506;28;20066;-90
2023/01/01 09:08:19;;;;;;;9.70;4.32;;;;;;;;;;8267524;28;20054;-91
2023/01/01 09:12:23;;;;;;;8.68;4.15;;;;;;;;;;8269954;28;20049;-90
2023/01/01 09:16:25;;;;;;;8.50;4.28;;;;;;;;;;8264321;28;20610;-92
2023/01/01 09:20:32;;;;;;;9.35;4.68;;;;;;;;;;8280844;28;20680;-91
2023/01/01 09:24:35;;;;;;;7.95;4.00;;;;;;;;;;8273675;28;20038;-89
2023/01/01 09:28:39;;;;;;;8.05;4.47;;;;;;;;;;8276007;28;20054;-89
2023/01/01 09:32:41;;;;;;;8.07;4.07;;;;;;;;;;8266694;28;20050;-89
2023/01/01 09:36:46;;;;;;;8.75;4.30;;;;;;;;;;8261488;28;20085;-88
2023/01/01 09:41:00;;;;;;;9.27;4.70;;;;;;;;;;8262957;28;20058;-90
2023/01/01 09:45:15;;;;;;;8.93;4.40;;;;;;;;;;8273369;28;20053;-90
2023/01/01 09:49:24;;;;;;;8.18;4.13;;;;;;;;;;8267833;28;20156;-91
2023/01/01 09:53:34;;;;;;;8.88;4.53;;;;;;;;;;8274006;28;20387;-91
2023/01/01 09:57:37;;;;;;;7.50;4.30;;;;;;;;;;8264755;28;20113;-91
2023/01/01 10:01:48;;;;;;;7.43;4.07;;;;;;;;;;8265672;28;20057;-90
2023/01/01 10:05:57;;;;;;;6.60;4.00;;;;;;;;;;8268489;28;20489;-91
2023/01/01 10:10:08;;;;;;;8.18;4.35;;;;;;;;;;8277267;28;20410;-90
2023/01/01 10:14:18;;;;;;;9.77;4.07;;;;;;;;;;8271906;28;20125;-89
2023/01/01 10:18:24;;;;;;;6.87;4.20;;;;;;;;;;8278593;28;20582;-90
2023/01/01 10:22:32;;;;;;;7.22;3.95;;;;;;;;;;8268517;28;20050;-91
2023/01/01 10:26:39;;;;;;;7.18;3.50;;;;;;;;;;8266550;28;20606;-92
2023/01/01 10:30:43;;;;;;;8.32;3.95;;;;;;;;;;8262892;28;20049;-91
2023/01/01 10:34:46;;;;;;;6.90;4.15;;;;;;;;;;8263980;28;20100;-90
2023/01/01 10:38:50;;;;;;;7.55;4.20;;;;;;;;;;8274450;28;20063;-89
2023/01/01 10:42:56;;;;;;;8.75;3.92;;;;;;;;;;8268976;28;20042;-89
2023/01/01 10:46:59;;;;;;;8.15;4.07;;;;;;;;;;8274787;28;20359;-90
2023/01/01 10:51:06;;;;;;;8.70;4.30;;;;;;;;;;8278447;28;20575;-88
2023/01/01 10:55:20;;;;;;;8.07;4.22;;;;;;;;;;8274293;28;20052;-89
2023/01/01 10:59:36;;;;;;;9.90;4.22;;;;;;;;;;8275057;28;20050;-90
2023/01/01 11:03:54;;;;;;;9.80;4.00;;;;;;;;;;8269722;28;20418;-88
2023/01/01 11:07:57;;;;;;;6.43;4.10;;;;;;;;;;8265212;28;20560;-87
2023/01/01 11:12:01;;;;;;;7.00;4.30;;;;;;;;;;8274878;28;20422;-91
2023/01/01 11:16:11;;;;;;;6.85;4.57;;;;;;;;;;8262606;28;20049;-91
2023/01/01 11:20:18;;;;;;;14.10;7.93;;;;;;;;;;8281945;28;20045;-91
2023/01/01 11:24:23;;;;;;;9.82;4.32;;;;;;;;;;8294809;28;20100;-90
2023/01/01 11:28:27;;;;;;;9.75;4.95;;;;;;;;;;8296179;28;20383;-88
2023/01/01 11:32:36;;;;;;;8.73;5.03;;;;;;;;;;8295806;28;20042;-89
2023/01/01 11:36:38;;;;;;;7.05;4.35;;;;;;;;;;8282657;28;20046;-91
2023/01/01 11:40:47;;;;;;;7.30;4.20;;;;;;;;;;8282902;28;20075;-90
2023/01/01 11:44:52;;;;;;;8.32;4.55;;;;;;;;;;8276573;28;20063;-89
2023/01/01 11:48:57;;;;;;;8.77;4.40;;;;;;;;;;8297665;28;20049;-88
2023/01/01 11:53:18;;;;;;;8.70;4.22;;;;;;;;;;8300597;28;20430;-89
2023/01/01 11:57:25;;;;;;;9.35;4.38;;;;;;;;;;8301285;28;20125;-87
2023/01/01 12:01:32;;;;;;;6.78;3.60;;;;;;;;;;8302342;28;20049;-88
2023/01/01 12:05:45;;;;;;;6.75;3.97;;;;;;;;;;8291296;28;20049;-90
2023/01/01 12:09:56;;;;;;;10.30;5.13;;;;;;;;;;8288345;28;20057;-88
2023/01/01 12:14:14;;;;;;;6.90;4.17;;;;;;;;;;8301409;28;20124;-90
2023/01/01 12:18:21;;;;;;;7.78;4.18;;;;;;;;;;8300949;28;20046;-90
2023/01/01 12:22:26;;;;;;;7.70;4.15;;;;;;;;;;8300873;28;20096;-90
2023/01/01 12:26:37;;;;;;;9.38;3.85;;;;;;;;;;8301068;28;20239;-89
2023/01/01 12:30:49;;;;;;;8.02;4.47;;;;;;;;;;8290386;28;20045;-89
2023/01/01 12:35:00;;;;;;;10.40;4.20;;;;;;;;;;8286671;28;20046;-90
2023/01/01 12:39:54;;;;;;;8.05;3.90;;;;;;;;;;8300622;28;20129;-90
2023/01/01 12:44:07;;;;;;;10.63;4.20;;;;;;;;;;8299632;28;20078;-90
2023/01/01 12:48:27;;;;;;;6.78;3.70;;;;;;;;;;8299974;28;20054;-89
2023/01/01 12:52:40;;;;;;;7.38;3.92;;;;;;;;;;8299801;28;20073;-89
2023/01/01 12:56:49;;;;;;;8.57;4.22;;;;;;;;;;8299641;28;20049;-89
2023/01/01 13:00:57;;;;;;;8.30;3.92;;;;;;;;;;8299163;28;20054;-88
2023/01/01 13:05:03;;;;;;;8.55;4.28;;;;;;;;;;8299524;28;20053;-90
2023/01/01 13:09:11;;;;;;;10.10;4.20;;;;;;;;;;8299615;28;20046;-87
2023/01/01 13:13:14;;;;;;;9.43;3.95;;;;;;;;;;8300095;28;20473;-88
2023/01/01 13:17:22;;;;;;;7.18;4.07;;;;;;;;;;8299314;28;20073;-87
2023/01/01 13:21:27;;;;;;;9.00;3.90;;;;;;;;;;8299190;28;20056;-89
2023/01/01 13:25:30;;;;;;;8.43;4.25;;;;;;;;;;8277351;28;20145;-88
2023/01/01 13:29:44;;;;;;;9.32;4.53;;;;;;;;;;8294305;28;20413;-90
2023/01/01 13:34:26;;;;;;;9.27;4.40;;;;;;;;;;8298644;28;20125;-89
2023/01/01 13:38:48;;;;;;;9.13;4.10;;;;;;;;;;8286840;28;20052;-90
2023/01/01 13:43:06;;;;;;;8.52;4.38;;;;;;;;;;8298416;28;20056;-89
2023/01/01 13:47:19;;;;;;;9.07;4.65;;;;;;;;;;8298110;28;20057;-90
2023/01/01 13:51:51;;;;;;;8.48;4.65;;;;;;;;;;8298290;28;20049;-89
2023/01/01 13:56:14;;;;;;;8.43;4.57;;;;;;;;;;8295992;28;20479;-90
2023/01/01 14:00:22;;;;;;;11.25;5.22;;;;;;;;;;8295965;28;20060;-89
2023/01/01 14:04:38;;;;;;;8.45;5.05;;;;;;;;;;8297871;28;20125;-89
2023/01/01 14:08:42;;;;;;;10.15;5.20;;;;;;;;;;8264773;28;20054;-88
2023/01/01 14:12:45;;;;;;;10.00;4.22;;;;;;;;;;8264579;28;20747;-88
2023/01/01 14:16:48;;;;;;;10.27;5.20;;;;;;;;;;8262925;28;20109;-91
2023/01/01 14:20:52;;;;;;;10.13;4.60;;;;;;;;;;8263963;28;20137;-90
2023/01/01 14:24:57;;;;;;;8.65;5.20;;;;;;;;;;8266113;28;20117;-87
2023/01/01 14:29:02;;;;;;;9.55;4.70;;;;;;;;;;8267582;28;20111;-89
2023/01/01 14:33:05;;;;;;;13.32;5.45;;;;;;;;;;8277543;28;20069;-88
2023/01/01 14:37:23;;;;;;;11.27;5.45;;;;;;;;;;8274533;28;20046;-87
2023/01/01 14:41:30;;;;;;;10.13;4.80;;;;;;;;;;8270078;28;20268;-88
2023/01/01 14:45:35;;;;;;;9.07;5.35;;;;;;;;;;8266320;28;20524;-89
2023/01/01 14:49:39;;;;;;;10.93;5.43;;;;;;;;;;8269424;28;20048;-89
2023/01/01 14:53:42;;;;;;;11.07;5.88;;;;;;;;;;8280799;28;20056;-88
2023/01/01 14:57:53;;;;;;;11.27;6.43;;;;;;;;;;8265503;28;20046;-88
2023/01/01 15:02:13;;;;;;;11.95;5.40;;;;;;;;;;8264166;28;20088;-89
2023/01/01 15:06:17;;;;;;;9.30;5.30;;;;;;;;;;8267272;28;20051;-88
2023/01/01 15:10:20;;;;;;;12.15;6.10;;;;;;;;;;8268821;28;20038;-90
2023/01/01 15:14:33;;;;;;;9.45;5.43;;;;;;;;;;8274208;28;20405;-87
2023/01/01 15:18:37;;;;;;;11.68;5.35;;;;;;;;;;8265279;28;20074;-90
2023/01/01 15:22:40;;;;;;;14.10;6.40;;;;;;;;;;8262750;28;20054;-88
2023/01/01 15:26:49;;;;;;;12.63;6.40;;;;;;;;;;8271407;28;20058;-90
2023/01/01 15:30:55;;;;;;;11.65;6.40;;;;;;;;;;8273052;28;20054;-87
2023/01/01 15:35:01;;;;;;;11.00;5.90;;;;;;;;;;8283802;28;20133;-88
2023/01/01 15:39:09;;;;;;;14.27;7.43;;;;;;;;;;8291782;28;20042;-90
2023/01/01 15:43:16;;;;;;;26.60;12.73;;;;;;;;;;8287094;28;20049;-89
2023/01/01 15:47:25;;;;;;;12.27;6.18;;;;;;;;;;8281525;28;20050;-88
2023/01/01 15:51:29;;;;;;;11.48;6.15;;;;;;;;;;8266421;28;20142;-90
2023/01/01 15:55:35;;;;;;;13.43;6.68;;;;;;;;;;8275151;28;20046;-87
2023/01/01 15:59:39;;;;;;;14.88;7.28;;;;;;;;;;8267476;28;20052;-90
2023/01/01 16:03:47;;;;;;;17.35;8.38;;;;;;;;;;8266855;28;20108;-91
2023/01/01 16:07:59;;;;;;;21.45;11.20;;;;;;;;;;8270600;28;20065;-91
2023/01/01 16:12:04;;;;;;;15.20;8.15;;;;;;;;;;8264343;28;20077;-90
2023/01/01 16:16:25;;;;;;;12.50;6.47;;;;;;;;;;8264723;28;20062;-91
2023/01/01 16:20:30;;;;;;;13.02;6.53;;;;;;;;;;8276789;28;20108;-89
2023/01/01 16:24:34;;;;;;;15.40;7.60;;;;;;;;;;8270149;28;20178;-89
2023/01/01 16:28:37;;;;;;;12.93;7.90;;;;;;;;;;8270573;28;20050;-89
2023/01/01 16:32:40;;;;;;;11.98;6.10;;;;;;;;;;8271901;28;20502;-90
2023/01/01 16:36:46;;;;;;;16.45;9.38;;;;;;;;;;8277083;28;20096;-90
2023/01/01 16:40:52;;;;;;;12.00;6.80;;;;;;;;;;8277710;28;20188;-90
2023/01/01 16:44:58;;;;;;;13.27;7.07;;;;;;;;;;8275530;28;20133;-88
2023/01/01 16:49:04;;;;;;;15.85;7.07;;;;;;;;;;8290387;28;20038;-91
2023/01/01 16:53:13;;;;;;;14.30;7.78;;;;;;;;;;8287755;28;20128;-91
2023/01/01 16:57:18;;;;;;;24.15;11.40;;;;;;;;;;8280894;28;20065;-90
2023/01/01 17:01:25;;;;;;;16.88;9.32;;;;;;;;;;8282179;28;20048;-90
2023/01/01 17:05:30;;;;;;;13.82;8.20;;;;;;;;;;8287202;28;20037;-91
2023/01/01 17:09:35;;;;;;;13.88;7.20;;;;;;;;;;8282638;28;20066;-91
2023/01/01 17:13:41;;;;;;;18.40;8.93;;;;;;;;;;8287071;28;20595;-89
2023/01/01 17:17:49;;;;;;;17.33;8.02;;;;;;;;;;8279524;28;20053;-91
2023/01/01 17:21:54;;;;;;;17.80;8.93;;;;;;;;;;8282882;28;20414;-90
2023/01/01 17:26:08;;;;;;;16.80;10.48;;;;;;;;;;8284810;28;20054;-90
2023/01/01 17:30:13;;;;;;;18.38;8.15;;;;;;;;;;8281600;28;20563;-90
2023/01/01 17:34:20;;;;;;;17.73;9.82;;;;;;;;;;8277991;28;20426;-90
2023/01/01 17:38:26;;;;;;;15.52;8.40;;;;;;;;;;8267283;28;20054;-87
2023/01/01 17:42:31;;;;;;;23.63;10.82;;;;;;;;;;8279217;28;20041;-91
2023/01/01 17:46:35;;;;;;;16.20;8.60;;;;;;;;;;8278647;28;20153;-89
2023/01/01 17:50:39;;;;;;;15.95;8.02;;;;;;;;;;8262213;28;20384;-89
2023/01/01 17:54:45;;;;;;;14.60;7.55;;;;;;;;;;8270741;28;20089;-90
2023/01/01 17:58:53;;;;;;;14.00;7.80;;;;;;;;;;8261447;28;20054;-92
2023/01/01 18:02:56;;;;;;;16.05;7.05;;;;;;;;;;8270976;28;20046;-90
2023/01/01 18:07:00;;;;;;;13.70;6.68;;;;;;;;;;8269893;28;20053;-91
2023/01/01 18:11:03;;;;;;;13.02;7.03;;;;;;;;;;8273836;28;20418;-89
2023/01/01 18:15:10;;;;;;;16.30;6.65;;;;;;;;;;8279196;28;20050;-89
2023/01/01 18:19:13;;;;;;;15.50;6.55;;;;;;;;;;8274492;28;20145;-90
2023/01/01 18:23:18;;;;;;;17.02;8.80;;;;;;;;;;8273483;28;20556;-89
2023/01/01 18:27:24;;;;;;;20.23;10.82;;;;;;;;;;8271447;28;20169;-90
2023/01/01 18:31:32;;;;;;;13.93;6.63;;;;;;;;;;8264869;28;20050;-89
2023/01/01 18:35:36;;;;;;;17.25;8.85;;;;;;;;;;8277610;28;20042;-91
2023/01/01 18:39:46;;;;;;;14.32;7.22;;;;;;;;;;8269069;28;20458;-90
2023/01/01 18:43:51;;;;;;;13.55;7.40;;;;;;;;;;8271034;28;20058;-91
2023/01/01 18:47:56;;;;;;;12.52;6.82;;;;;;;;;;8265684;28;20137;-89
2023/01/01 18:52:20;;;;;;;15.55;7.93;;;;;;;;;;8268407;28;20050;-89
2023/01/01 18:56:26;;;;;;;14.18;7.78;;;;;;;;;;8267199;28;20042;-88
2023/01/01 19:00:34;;;;;;;15.38;7.60;;;;;;;;;;8250529;28;20046;-89
2023/01/01 19:04:39;;;;;;;15.70;7.07;;;;;;;;;;8272590;28;20038;-91
2023/01/01 19:08:42;;;;;;;12.98;6.45;;;;;;;;;;8265982;28;20055;-89
2023/01/01 19:12:44;;;;;;;13.20;6.60;;;;;;;;;;8261575;28;20498;-90
2023/01/01 19:16:50;;;;;;;15.98;7.55;;;;;;;;;;8278751;28;20426;-87
2023/01/01 19:21:01;;;;;;;15.18;7.53;;;;;;;;;;8283345;28;20124;-88
2023/01/01 19:25:29;;;;;;;19.92;8.52;;;;;;;;;;8248357;28;20487;-88
2023/01/01 19:29:44;;;;;;;13.63;7.05;;;;;;;;;;8267611;28;20042;-88
2023/01/01 19:33:47;;;;;;;17.80;8.10;;;;;;;;;;8254196;28;20061;-88
2023/01/01 19:37:53;;;;;;;16.17;8.27;;;;;;;;;;8278660;28;20553;-94
2023/01/01 19:42:02;;;;;;;18.70;7.93;;;;;;;;;;8275167;28;20046;-93
2023/01/01 19:46:06;;;;;;;15.05;7.32;;;;;;;;;;8266183;28;20101;-93
2023/01/01 19:50:11;;;;;;;16.95;8.02;;;;;;;;;;8273023;28;20043;-92
2023/01/01 19:54:17;;;;;;;22.48;9.48;;;;;;;;;;8266752;28;20553;-92
2023/01/01 19:58:22;;;;;;;17.83;8.13;;;;;;;;;;8270044;28;20080;-93
2023/01/01 20:02:28;;;;;;;17.45;8.05;;;;;;;;;;8265603;28;20475;-92
2023/01/01 20:06:35;;;;;;;15.05;7.68;;;;;;;;;;8268604;28;20046;-91
2023/01/01 20:10:43;;;;;;;21.02;7.85;;;;;;;;;;8282573;28;20054;-92
2023/01/01 20:14:49;;;;;;;20.40;9.35;;;;;;;;;;8286785;28;20052;-94
2023/01/01 20:18:56;;;;;;;16.75;8.32;;;;;;;;;;8265021;28;20117;-92
2023/01/01 20:23:01;;;;;;;19.55;8.95;;;;;;;;;;8263566;28;20046;-93
2023/01/01 20:27:07;;;;;;;15.20;8.23;;;;;;;;;;8283590;28;20080;-92
2023/01/01 20:31:17;;;;;;;19.83;9.10;;;;;;;;;;8286589;28;20513;-92
2023/01/01 20:39:45;;;;;;;18.02;7.65;;;;;;;;;;8267443;28;20181;-92
2023/01/01 20:43:54;;;;;;;18.20;8.85;;;;;;;;;;8277835;28;20135;-93
2023/01/01 20:48:01;;;;;;;18.38;8.57;;;;;;;;;;8287447;28;20049;-91
2023/01/01 20:52:06;;;;;;;17.00;8.32;;;;;;;;;;8280330;28;20050;-92
2023/01/01 20:56:12;;;;;;;15.57;7.93;;;;;;;;;;8262437;28;20098;-92
2023/01/01 21:00:20;;;;;;;18.98;8.63;;;;;;;;;;8285884;28;20080;-90
2023/01/01 21:04:24;;;;;;;16.52;8.93;;;;;;;;;;8258878;28;20568;-90
2023/01/01 21:08:28;;;;;;;20.15;9.52;;;;;;;;;;8284164;28;20061;-90
2023/01/01 21:12:33;;;;;;;17.98;8.57;;;;;;;;;;8274373;28;20056;-89
2023/01/01 21:16:43;;;;;;;17.77;8.85;;;;;;;;;;8278922;28;20052;-89
2023/01/01 21:20:52;;;;;;;16.33;9.45;;;;;;;;;;8292185;28;20046;-90
2023/01/01 21:24:56;;;;;;;17.27;8.88;;;;;;;;;;8298859;28;20494;-90
2023/01/01 21:29:01;;;;;;;21.63;10.13;;;;;;;;;;8286564;28;20046;-89
2023/01/01 21:33:15;;;;;;;20.75;9.68;;;;;;;;;;8283657;28;20483;-90
2023/01/01 21:41:45;;;;;;;18.67;8.75;;;;;;;;;;8273881;28;20530;-90
2023/01/01 21:45:49;;;;;;;18.45;8.75;;;;;;;;;;8281424;28;20132;-88
2023/01/01 21:49:56;;;;;;;17.35;8.45;;;;;;;;;;8280792;28;20478;-89
2023/01/01 21:54:16;;;;;;;22.83;8.73;;;;;;;;;;8295304;28;20056;-89
2023/01/01 22:02:40;;;;;;;14.82;8.07;;;;;;;;;;8293230;28;20062;-88
2023/01/01 22:06:46;;;;;;;15.32;8.13;;;;;;;;;;8292374;28;20437;-91
2023/01/01 22:10:50;;;;;;;22.70;10.13;;;;;;;;;;8298938;28;20121;-94
2023/01/01 22:14:57;;;;;;;16.55;8.75;;;;;;;;;;8297012;28;20049;-87
2023/01/01 22:19:00;;;;;;;18.88;8.75;;;;;;;;;;8302421;28;20045;-93
2023/01/01 22:23:19;;;;;;;17.00;8.90;;;;;;;;;;8301883;28;20121;-91
2023/01/01 22:27:28;;;;;;;15.20;7.38;;;;;;;;;;8280102;28;20046;-90
2023/01/01 22:31:35;;;;;;;13.75;7.32;;;;;;;;;;8279343;28;20513;-91
2023/01/01 22:35:37;;;;;;;16.77;7.97;;;;;;;;;;8289125;28;20046;-91
2023/01/01 22:39:42;;;;;;;17.45;9.32;;;;;;;;;;8275606;28;20132;-89
2023/01/01 22:43:47;;;;;;;15.20;7.50;;;;;;;;;;8272025;28;20141;-89
2023/01/01 22:47:50;;;;;;;24.75;9.65;;;;;;;;;;8277652;28;20073;-88
2023/01/01 22:51:55;;;;;;;21.08;9.73;;;;;;;;;;8276428;28;20073;-87
2023/01/01 22:55:59;;;;;;;14.82;7.53;;;;;;;;;;8296760;28;20545;-92
2023/01/01 23:00:02;;;;;;;16.48;8.27;;;;;;;;;;8272197;28;20137;-86
2023/01/01 23:04:05;;;;;;;17.48;8.50;;;;;;;;;;8296161;28;20049;-87
2023/01/01 23:08:07;;;;;;;17.50;8.55;;;;;;;;;;8307497;28;20053;-90
2023/01/01 23:12:12;;;;;;;18.02;8.52;;;;;;;;;;8265630;28;20038;-86
2023/01/01 23:16:14;;;;;;;19.80;8.77;;;;;;;;;;8276601;28;20085;-90
2023/01/01 23:20:18;;;;;;;16.38;7.50;;;;;;;;;;8288647;28;20116;-91
2023/01/01 23:24:23;;;;;;;15.85;7.65;;;;;;;;;;8296525;28;20125;-88
2023/01/01 23:28:31;;;;;;;13.90;7.05;;;;;;;;;;8283042;28;20413;-89
2023/01/01 23:32:35;;;;;;;15.85;8.02;;;;;;;;;;8284112;28;20495;-89
2023/01/01 23:36:39;;;;;;;18.05;9.13;;;;;;;;;;8271535;28;20497;-90
2023/01/01 23:40:41;;;;;;;17.92;8.35;;;;;;;;;;8295523;28;20046;-88
2023/01/01 23:44:46;;;;;;;19.10;8.20;;;;;;;;;;8280441;28;20134;-86
2023/01/01 23:48:49;;;;;;;15.25;7.47;;;;;;;;;;8289969;28;20157;-90
2023/01/01 23:52:52;;;;;;;13.70;7.57;;;;;;;;;;8289089;28;20054;-87
2023/01/01 23:56:55;;;;;;;20.63;9.25;;;;;;;;;;8296191;28;20046;-90
